Airfield :
LOGIN :

Register | Disclaimer

   EN    FR    IT 

 










Legend :    VFR   Marginal VFR   IFR   Intensive IFR   Very Intensive IFR
Visi :
Ceiling :
>= 8 km
>= 3000ft
5 to 8 km
1000 to 3000 ft
1500m to 5 km
500 to 1000 ft
800 to 1500m
200 to 500 ft
< 800m
< 200 ft
Symbols :   Thunderstorms  Fog  Heavy snow  Heavy precipitations  Wind > 20 kt
SIGMETs :     Misc.  Thunderstorms  Icing  Turbulence  Mountain Waves  Volcanic Ashes






- Airport Elevation : 179 ft
- IATA code : HEL


EFHK - Helsinki Vantaa

CURRENT METAR :
  • 231620Z 10011KT CAVOK 22/06 Q1025 NOSIG

EXPIRED METARs :
  • 231550Z VRB09KT CAVOK 22/06 Q1025 NOSIG
  • 231520Z 11011KT CAVOK 22/05 Q1025 NOSIG
  • 231450Z 11011KT 340V150 CAVOK 22/05 Q1026 NOSIG
  • 231420Z 12011G21KT CAVOK 23/06 Q1026 NOSIG
  • 231350Z 12011KT 080V140 CAVOK 23/06 Q1026 NOSIG
  • 231320Z 12012KT 090V160 CAVOK 23/05 Q1026 NOSIG
  • 231250Z 12013KT CAVOK 22/06 Q1026 NOSIG
  • 231220Z 12014KT CAVOK 22/05 Q1027 NOSIG
  • 231150Z 11015KT 070V130 CAVOK 22/04 Q1027 NOSIG

TAF TAF EFHK
Valid from the 23 at 15:00 until the 24 at 15:00 UTC


231428Z 2315/2415 12011KT CAVOK
PROB30
TEMPO 2315/2317 12015G25KT
BECMG 2406/2408 18010G23KT



MET'MAP, your aeronautical weather chart ! - Copyright ORBIFLY December 2007 - Disclaimer

ORBIFLY MET'MAP TEAM :

Programming & Development : Alexandra Zaïnal
Original concept : Baudouin d'Aumeries
Technical & hardware support : Manuel Goepfert
Assistance : Marc-Olivier Méhu




SOURCES & CREDITS :

   NOAA